sensor_id;sensor_type;location;lat;lon;timestamp;pressure;altitude;pressure_sealevel;temperature;humidity
66398;BME280;54877;51.504;3.894;2024-01-30T00:01:12;102571.22;;;12.61;68.71
66398;BME280;54877;51.504;3.894;2024-01-30T00:03:38;102570.19;;;12.65;68.58
66398;BME280;54877;51.504;3.894;2024-01-30T00:06:03;102569.28;;;12.66;68.75
66398;BME280;54877;51.504;3.894;2024-01-30T00:08:28;102575.59;;;12.62;68.61
66398;BME280;54877;51.504;3.894;2024-01-30T00:10:54;102575.81;;;12.56;68.53
66398;BME280;54877;51.504;3.894;2024-01-30T00:13:19;102582.44;;;12.71;68.28
66398;BME280;54877;51.504;3.894;2024-01-30T00:15:45;102571.78;;;12.72;68.34
66398;BME280;54877;51.504;3.894;2024-01-30T00:18:10;102566.25;;;12.78;68.25
66398;BME280;54877;51.504;3.894;2024-01-30T00:20:35;102565.22;;;12.82;67.95
66398;BME280;54877;51.504;3.894;2024-01-30T00:23:01;102567.00;;;12.83;68.07
66398;BME280;54877;51.504;3.894;2024-01-30T00:25:26;102559.88;;;12.84;67.59
66398;BME280;54877;51.504;3.894;2024-01-30T00:27:52;102552.56;;;12.90;67.71
66398;BME280;54877;51.504;3.894;2024-01-30T00:30:17;102546.69;;;12.81;68.05
66398;BME280;54877;51.504;3.894;2024-01-30T00:32:42;102541.31;;;12.82;67.93
66398;BME280;54877;51.504;3.894;2024-01-30T00:35:08;102536.81;;;12.84;67.86
66398;BME280;54877;51.504;3.894;2024-01-30T00:37:35;102531.41;;;12.60;68.56
66398;BME280;54877;51.504;3.894;2024-01-30T00:40:00;102538.66;;;12.82;67.98
66398;BME280;54877;51.504;3.894;2024-01-30T00:42:26;102539.47;;;12.84;67.77
66398;BME280;54877;51.504;3.894;2024-01-30T00:44:51;102544.69;;;12.87;67.67
66398;BME280;54877;51.504;3.894;2024-01-30T00:47:16;102548.13;;;12.91;67.61
66398;BME280;54877;51.504;3.894;2024-01-30T00:49:42;102549.00;;;12.91;67.67
66398;BME280;54877;51.504;3.894;2024-01-30T00:52:07;102550.84;;;12.89;67.77
66398;BME280;54877;51.504;3.894;2024-01-30T00:54:33;102548.31;;;12.85;67.84
66398;BME280;54877;51.504;3.894;2024-01-30T00:56:58;102555.66;;;12.77;68.10
66398;BME280;54877;51.504;3.894;2024-01-30T00:59:23;102554.88;;;12.73;68.25
66398;BME280;54877;51.504;3.894;2024-01-30T01:01:49;102542.53;;;12.72;68.36
66398;BME280;54877;51.504;3.894;2024-01-30T01:04:14;102542.53;;;12.72;68.43
66398;BME280;54877;51.504;3.894;2024-01-30T01:06:39;102545.03;;;12.77;68.22
66398;BME280;54877;51.504;3.894;2024-01-30T01:09:07;102551.41;;;12.71;68.51
66398;BME280;54877;51.504;3.894;2024-01-30T01:11:33;102546.00;;;12.74;68.41
66398;BME280;54877;51.504;3.894;2024-01-30T01:13:58;102537.13;;;12.75;68.26
66398;BME280;54877;51.504;3.894;2024-01-30T01:16:23;102529.28;;;12.71;68.62
66398;BME280;54877;51.504;3.894;2024-01-30T01:18:48;102524.59;;;12.51;69.22
66398;BME280;54877;51.504;3.894;2024-01-30T01:21:14;102527.66;;;12.67;68.91
66398;BME280;54877;51.504;3.894;2024-01-30T01:23:39;102520.44;;;12.70;68.86
66398;BME280;54877;51.504;3.894;2024-01-30T01:26:04;102512.59;;;12.67;68.95
66398;BME280;54877;51.504;3.894;2024-01-30T01:28:30;102510.25;;;12.57;69.45
66398;BME280;54877;51.504;3.894;2024-01-30T01:30:55;102523.09;;;12.70;69.06
66398;BME280;54877;51.504;3.894;2024-01-30T01:33:24;102522.28;;;12.68;68.95
66398;BME280;54877;51.504;3.894;2024-01-30T01:35:49;102511.38;;;12.76;68.74
66398;BME280;54877;51.504;3.894;2024-01-30T01:38:15;102509.59;;;12.76;68.82
66398;BME280;54877;51.504;3.894;2024-01-30T01:40:40;102510.66;;;12.72;68.81
66398;BME280;54877;51.504;3.894;2024-01-30T01:43:06;102512.25;;;12.76;68.54
66398;BME280;54877;51.504;3.894;2024-01-30T01:45:31;102515.03;;;12.73;68.72
66398;BME280;54877;51.504;3.894;2024-01-30T01:47:57;102514.31;;;12.68;68.98
66398;BME280;54877;51.504;3.894;2024-01-30T01:50:22;102509.09;;;12.65;68.95
66398;BME280;54877;51.504;3.894;2024-01-30T01:52:48;102505.41;;;12.69;68.91
66398;BME280;54877;51.504;3.894;2024-01-30T01:55:14;102514.22;;;12.71;68.81
66398;BME280;54877;51.504;3.894;2024-01-30T01:57:41;102508.88;;;12.73;68.78
66398;BME280;54877;51.504;3.894;2024-01-30T02:00:07;102511.97;;;12.59;69.19
66398;BME280;54877;51.504;3.894;2024-01-30T02:02:35;102527.69;;;12.65;68.94
66398;BME280;54877;51.504;3.894;2024-01-30T02:05:01;102527.66;;;12.67;69.03
66398;BME280;54877;51.504;3.894;2024-01-30T02:07:27;102528.41;;;12.70;68.81
66398;BME280;54877;51.504;3.894;2024-01-30T02:09:53;102526.50;;;12.75;68.63
66398;BME280;54877;51.504;3.894;2024-01-30T02:12:18;102514.03;;;12.77;68.51
66398;BME280;54877;51.504;3.894;2024-01-30T02:14:47;102510.66;;;12.72;68.63
66398;BME280;54877;51.504;3.894;2024-01-30T02:17:13;102509.09;;;12.65;68.89
66398;BME280;54877;51.504;3.894;2024-01-30T02:19:40;102508.72;;;12.50;69.46
66398;BME280;54877;51.504;3.894;2024-01-30T02:22:06;102508.38;;;12.60;69.19
66398;BME280;54877;51.504;3.894;2024-01-30T02:24:32;102501.97;;;12.67;68.92
66398;BME280;54877;51.504;3.894;2024-01-30T02:26:58;102508.13;;;12.68;68.91
66398;BME280;54877;51.504;3.894;2024-01-30T02:29:23;102504.38;;;12.73;68.72
66398;BME280;54877;51.504;3.894;2024-01-30T02:31:48;102504.44;;;12.72;68.82
66398;BME280;54877;51.504;3.894;2024-01-30T02:34:14;102492.94;;;12.71;68.65
66398;BME280;54877;51.504;3.894;2024-01-30T02:36:42;102495.59;;;12.71;68.76
66398;BME280;54877;51.504;3.894;2024-01-30T02:39:08;102498.16;;;12.74;68.74
66398;BME280;54877;51.504;3.894;2024-01-30T02:41:34;102489.38;;;12.72;68.60
66398;BME280;54877;51.504;3.894;2024-01-30T02:44:00;102500.00;;;12.72;68.65
66398;BME280;54877;51.504;3.894;2024-01-30T02:46:25;102508.69;;;12.77;68.56
66398;BME280;54877;51.504;3.894;2024-01-30T02:48:51;102503.38;;;12.77;68.57
66398;BME280;54877;51.504;3.894;2024-01-30T02:51:16;102510.44;;;12.78;68.50
66398;BME280;54877;51.504;3.894;2024-01-30T02:53:42;102503.38;;;12.77;68.51
66398;BME280;54877;51.504;3.894;2024-01-30T02:56:07;102512.38;;;12.73;68.78
66398;BME280;54877;51.504;3.894;2024-01-30T02:58:35;102502.66;;;12.72;68.79
66398;BME280;54877;51.504;3.894;2024-01-30T03:01:00;102503.47;;;12.74;68.80
66398;BME280;54877;51.504;3.894;2024-01-30T03:03:26;102505.22;;;12.75;68.62
66398;BME280;54877;51.504;3.894;2024-01-30T03:05:51;102514.31;;;12.68;68.87
66398;BME280;54877;51.504;3.894;2024-01-30T03:08:16;102507.13;;;12.70;68.79
66398;BME280;54877;51.504;3.894;2024-01-30T03:10:42;102504.63;;;12.66;69.16
66398;BME280;54877;51.504;3.894;2024-01-30T03:13:07;102498.88;;;12.53;69.49
66398;BME280;54877;51.504;3.894;2024-01-30T03:15:32;102497.03;;;12.55;69.45
66398;BME280;54877;51.504;3.894;2024-01-30T03:17:58;102483.63;;;12.58;69.31
66398;BME280;54877;51.504;3.894;2024-01-30T03:20:23;102488.59;;;12.69;68.97
66398;BME280;54877;51.504;3.894;2024-01-30T03:22:49;102489.41;;;12.71;69.01
66398;BME280;54877;51.504;3.894;2024-01-30T03:25:14;102480.56;;;12.70;68.97
66398;BME280;54877;51.504;3.894;2024-01-30T03:27:39;102478.97;;;12.65;69.24
66398;BME280;54877;51.504;3.894;2024-01-30T03:30:05;102486.09;;;12.64;69.12
66398;BME280;54877;51.504;3.894;2024-01-30T03:32:31;102490.69;;;12.59;69.34
66398;BME280;54877;51.504;3.894;2024-01-30T03:34:56;102490.53;;;12.64;69.35
66398;BME280;54877;51.504;3.894;2024-01-30T03:37:23;102484.41;;;12.62;69.43
66398;BME280;54877;51.504;3.894;2024-01-30T03:39:48;102482.50;;;12.65;69.20
66398;BME280;54877;51.504;3.894;2024-01-30T03:42:13;102484.44;;;12.60;69.33
66398;BME280;54877;51.504;3.894;2024-01-30T03:44:39;102480.97;;;12.58;69.46
66398;BME280;54877;51.504;3.894;2024-01-30T03:47:04;102480.81;;;12.63;69.45
66398;BME280;54877;51.504;3.894;2024-01-30T03:49:29;102483.22;;;12.70;69.14
66398;BME280;54877;51.504;3.894;2024-01-30T03:51:55;102476.13;;;12.71;69.09
66398;BME280;54877;51.504;3.894;2024-01-30T03:54:20;102474.41;;;12.70;69.10
66398;BME280;54877;51.504;3.894;2024-01-30T03:56:45;102467.19;;;12.73;69.08
66398;BME280;54877;51.504;3.894;2024-01-30T03:59:10;102470.78;;;12.72;69.12
66398;BME280;54877;51.504;3.894;2024-01-30T04:01:36;102476.03;;;12.74;69.08
66398;BME280;54877;51.504;3.894;2024-01-30T04:04:01;102464.44;;;12.76;68.95
66398;BME280;54877;51.504;3.894;2024-01-30T04:06:26;102473.38;;;12.74;68.96
66398;BME280;54877;51.504;3.894;2024-01-30T04:08:52;102470.72;;;12.74;69.05
66398;BME280;54877;51.504;3.894;2024-01-30T04:11:20;102466.56;;;12.65;69.51
66398;BME280;54877;51.504;3.894;2024-01-30T04:13:45;102464.63;;;12.70;69.32
66398;BME280;54877;51.504;3.894;2024-01-30T04:16:22;102462.84;;;12.71;69.22
66398;BME280;54877;51.504;3.894;2024-01-30T04:18:48;102466.22;;;12.76;69.16
66398;BME280;54877;51.504;3.894;2024-01-30T04:21:13;102471.88;;;12.65;69.45
66398;BME280;54877;51.504;3.894;2024-01-30T04:23:39;102474.41;;;12.70;69.36
66398;BME280;54877;51.504;3.894;2024-01-30T04:26:05;102463.09;;;12.63;69.70
66398;BME280;54877;51.504;3.894;2024-01-30T04:28:31;102466.38;;;12.71;69.21
66398;BME280;54877;51.504;3.894;2024-01-30T04:30:56;102462.13;;;12.66;69.64
66398;BME280;54877;51.504;3.894;2024-01-30T04:33:21;102458.59;;;12.65;69.52
66398;BME280;54877;51.504;3.894;2024-01-30T04:35:47;102454.88;;;12.71;69.31
66398;BME280;54877;51.504;3.894;2024-01-30T04:38:12;102455.72;;;12.73;69.21
66398;BME280;54877;51.504;3.894;2024-01-30T04:40:39;102449.44;;;12.74;69.29
66398;BME280;54877;51.504;3.894;2024-01-30T04:43:04;102444.22;;;12.72;69.33
66398;BME280;54877;51.504;3.894;2024-01-30T04:45:30;102443.25;;;12.73;69.28
66398;BME280;54877;51.504;3.894;2024-01-30T04:47:55;102444.34;;;12.68;69.38
66398;BME280;54877;51.504;3.894;2024-01-30T04:50:20;102448.75;;;12.69;69.42
66398;BME280;54877;51.504;3.894;2024-01-30T04:52:46;102437.22;;;12.70;69.39
66398;BME280;54877;51.504;3.894;2024-01-30T04:55:11;102446.00;;;12.72;69.41
66398;BME280;54877;51.504;3.894;2024-01-30T04:57:36;102438.28;;;12.64;69.71
66398;BME280;54877;51.504;3.894;2024-01-30T05:00:02;102438.28;;;12.64;69.76
66398;BME280;54877;51.504;3.894;2024-01-30T05:02:28;102437.31;;;12.67;69.77
66398;BME280;54877;51.504;3.894;2024-01-30T05:04:53;102434.91;;;12.59;70.06
66398;BME280;54877;51.504;3.894;2024-01-30T05:07:19;102439.97;;;12.67;69.94
66398;BME280;54877;51.504;3.894;2024-01-30T05:09:44;102446.25;;;12.64;69.99
66398;BME280;54877;51.504;3.894;2024-01-30T05:12:09;102447.31;;;12.59;70.18
66398;BME280;54877;51.504;3.894;2024-01-30T05:14:35;102450.44;;;12.71;69.97
66398;BME280;54877;51.504;3.894;2024-01-30T05:17:00;102457.50;;;12.72;69.71
66398;BME280;54877;51.504;3.894;2024-01-30T05:19:25;102446.59;;;12.54;70.45
66398;BME280;54877;51.504;3.894;2024-01-30T05:21:51;102466.47;;;12.68;69.88
66398;BME280;54877;51.504;3.894;2024-01-30T05:24:16;102463.78;;;12.70;69.96
66398;BME280;54877;51.504;3.894;2024-01-30T05:26:41;102468.94;;;12.74;69.67
66398;BME280;54877;51.504;3.894;2024-01-30T05:29:07;102471.53;;;12.76;69.61
66398;BME280;54877;51.504;3.894;2024-01-30T05:31:33;102474.97;;;12.79;69.61
66398;BME280;54877;51.504;3.894;2024-01-30T05:34:01;102476.09;;;12.72;69.99
66398;BME280;54877;51.504;3.894;2024-01-30T05:36:26;102474.16;;;12.77;69.66
66398;BME280;54877;51.504;3.894;2024-01-30T05:38:52;102472.31;;;12.79;69.77
66398;BME280;54877;51.504;3.894;2024-01-30T05:41:17;102479.28;;;12.83;69.83
66398;BME280;54877;51.504;3.894;2024-01-30T05:43:43;102474.97;;;12.79;69.87
66398;BME280;54877;51.504;3.894;2024-01-30T05:46:08;102483.66;;;12.84;69.74
66398;BME280;54877;51.504;3.894;2024-01-30T05:48:34;102483.53;;;12.87;69.85
66398;BME280;54877;51.504;3.894;2024-01-30T05:51:00;102476.09;;;12.98;69.52
66398;BME280;54877;51.504;3.894;2024-01-30T05:53:27;102477.84;;;13.00;69.38
66398;BME280;54877;51.504;3.894;2024-01-30T05:55:52;102480.53;;;12.98;69.50
66398;BME280;54877;51.504;3.894;2024-01-30T05:58:17;102484.91;;;13.01;69.56
66398;BME280;54877;51.504;3.894;2024-01-30T06:00:42;102477.88;;;12.98;69.68
66398;BME280;54877;51.504;3.894;2024-01-30T06:03:08;102493.59;;;13.06;69.41
66398;BME280;54877;51.504;3.894;2024-01-30T06:05:33;102495.31;;;13.07;69.40
66398;BME280;54877;51.504;3.894;2024-01-30T06:07:58;102489.06;;;12.81;70.21
66398;BME280;54877;51.504;3.894;2024-01-30T06:10:24;102483.16;;;13.00;69.54
66398;BME280;54877;51.504;3.894;2024-01-30T06:12:49;102497.16;;;13.05;69.52
66398;BME280;54877;51.504;3.894;2024-01-30T06:15:14;102504.06;;;13.12;69.26
66398;BME280;54877;51.504;3.894;2024-01-30T06:17:40;102500.94;;;12.98;69.73
66398;BME280;54877;51.504;3.894;2024-01-30T06:20:06;102497.16;;;13.05;69.69
66398;BME280;54877;51.504;3.894;2024-01-30T06:22:32;102488.28;;;13.06;69.79
66398;BME280;54877;51.504;3.894;2024-01-30T06:24:57;102500.63;;;13.07;69.60
66398;BME280;54877;51.504;3.894;2024-01-30T06:27:23;102491.66;;;13.11;69.63
66398;BME280;54877;51.504;3.894;2024-01-30T06:29:51;102489.91;;;13.10;69.65
66398;BME280;54877;51.504;3.894;2024-01-30T06:32:16;102499.09;;;13.00;70.17
66398;BME280;54877;51.504;3.894;2024-01-30T06:34:42;102495.31;;;13.07;69.95
66398;BME280;54877;51.504;3.894;2024-01-30T06:37:09;102492.72;;;13.05;70.12
66398;BME280;54877;51.504;3.894;2024-01-30T06:39:34;102500.69;;;13.05;70.07
66398;BME280;54877;51.504;3.894;2024-01-30T06:42:00;102497.00;;;13.11;70.03
66398;BME280;54877;51.504;3.894;2024-01-30T06:44:25;102505.09;;;13.06;70.15
66398;BME280;54877;51.504;3.894;2024-01-30T06:46:50;102513.22;;;13.02;70.39
66398;BME280;54877;51.504;3.894;2024-01-30T06:49:15;102511.25;;;13.08;70.14
66398;BME280;54877;51.504;3.894;2024-01-30T06:51:41;102516.69;;;13.04;70.27
66398;BME280;54877;51.504;3.894;2024-01-30T06:54:06;102516.31;;;13.16;69.88
66398;BME280;54877;51.504;3.894;2024-01-30T06:56:31;102511.91;;;13.15;69.89
66398;BME280;54877;51.504;3.894;2024-01-30T06:58:57;102508.59;;;13.08;69.84
66398;BME280;54877;51.504;3.894;2024-01-30T07:01:27;102517.00;;;12.94;70.51
66398;BME280;54877;51.504;3.894;2024-01-30T07:03:54;102526.38;;;13.06;70.24
66398;BME280;54877;51.504;3.894;2024-01-30T07:06:19;102521.06;;;13.06;70.25
66398;BME280;54877;51.504;3.894;2024-01-30T07:08:45;102521.91;;;13.08;70.15
66398;BME280;54877;51.504;3.894;2024-01-30T07:11:11;102519.31;;;13.05;70.28
66398;BME280;54877;51.504;3.894;2024-01-30T07:13:49;102532.63;;;13.04;70.48
66398;BME280;54877;51.504;3.894;2024-01-30T07:16:16;102536.91;;;13.09;70.14
66398;BME280;54877;51.504;3.894;2024-01-30T07:18:41;102530.91;;;13.03;70.29
66398;BME280;54877;51.504;3.894;2024-01-30T07:21:06;102530.91;;;13.03;70.44
66398;BME280;54877;51.504;3.894;2024-01-30T07:23:32;102541.28;;;13.12;70.02
66398;BME280;54877;51.504;3.894;2024-01-30T07:25:59;102537.84;;;13.07;70.28
66398;BME280;54877;51.504;3.894;2024-01-30T07:28:25;102544.75;;;13.14;70.14
66398;BME280;54877;51.504;3.894;2024-01-30T07:30:51;102550.97;;;13.13;70.10
66398;BME280;54877;51.504;3.894;2024-01-30T07:33:16;102544.66;;;13.17;69.98
66398;BME280;54877;51.504;3.894;2024-01-30T07:35:41;102552.56;;;13.18;70.01
66398;BME280;54877;51.504;3.894;2024-01-30T07:38:07;102553.53;;;13.16;70.15
66398;BME280;54877;51.504;3.894;2024-01-30T07:40:32;102557.09;;;13.15;70.18
66398;BME280;54877;51.504;3.894;2024-01-30T07:42:58;102555.22;;;13.18;70.14
66398;BME280;54877;51.504;3.894;2024-01-30T07:45:23;102559.75;;;13.16;70.20
66398;BME280;54877;51.504;3.894;2024-01-30T07:47:50;102562.22;;;13.21;70.26
66398;BME280;54877;51.504;3.894;2024-01-30T07:50:16;102564.97;;;13.19;69.98
66398;BME280;54877;51.504;3.894;2024-01-30T07:52:45;102567.56;;;13.21;69.96
66398;BME280;54877;51.504;3.894;2024-01-30T07:55:10;102568.69;;;13.14;70.33
66398;BME280;54877;51.504;3.894;2024-01-30T07:57:38;102577.28;;;13.22;69.94
66398;BME280;54877;51.504;3.894;2024-01-30T08:00:04;102580.75;;;13.24;69.87
66398;BME280;54877;51.504;3.894;2024-01-30T08:02:33;102575.69;;;13.16;70.20
66398;BME280;54877;51.504;3.894;2024-01-30T08:04:58;102587.22;;;13.17;70.05
66398;BME280;54877;51.504;3.894;2024-01-30T08:07:24;102590.78;;;13.16;70.25
66398;BME280;54877;51.504;3.894;2024-01-30T08:09:49;102591.81;;;13.12;70.31
66398;BME280;54877;51.504;3.894;2024-01-30T08:12:15;102594.16;;;13.21;70.03
66398;BME280;54877;51.504;3.894;2024-01-30T08:14:40;102594.03;;;13.25;70.04
66398;BME280;54877;51.504;3.894;2024-01-30T08:17:06;102599.38;;;13.24;69.81
66398;BME280;54877;51.504;3.894;2024-01-30T08:19:32;102598.31;;;13.29;69.61
66398;BME280;54877;51.504;3.894;2024-01-30T08:21:57;102607.34;;;13.24;69.91
66398;BME280;54877;51.504;3.894;2024-01-30T08:24:23;102603.72;;;13.26;69.95
66398;BME280;54877;51.504;3.894;2024-01-30T08:26:48;102608.31;;;13.21;70.12
66398;BME280;54877;51.504;3.894;2024-01-30T08:29:14;102610.97;;;13.21;70.18
66398;BME280;54877;51.504;3.894;2024-01-30T08:31:39;102609.09;;;13.25;69.91
66398;BME280;54877;51.504;3.894;2024-01-30T08:34:04;102608.66;;;13.11;70.58
66398;BME280;54877;51.504;3.894;2024-01-30T08:36:30;102612.41;;;13.04;70.67
66398;BME280;54877;51.504;3.894;2024-01-30T08:38:55;102611.66;;;13.00;70.87
66398;BME280;54877;51.504;3.894;2024-01-30T08:41:20;102619.66;;;12.98;70.95
66398;BME280;54877;51.504;3.894;2024-01-30T08:43:46;102611.69;;;12.98;71.03
66398;BME280;54877;51.504;3.894;2024-01-30T08:46:11;102610.88;;;12.96;71.09
66398;BME280;54877;51.504;3.894;2024-01-30T08:48:37;102610.38;;;12.84;71.39
66398;BME280;54877;51.504;3.894;2024-01-30T08:51:02;102612.53;;;13.01;71.05
66398;BME280;54877;51.504;3.894;2024-01-30T08:53:29;102622.38;;;12.97;71.15
66398;BME280;54877;51.504;3.894;2024-01-30T08:55:54;102632.13;;;12.96;71.22
66398;BME280;54877;51.504;3.894;2024-01-30T08:58:19;102629.53;;;12.95;71.14
66398;BME280;54877;51.504;3.894;2024-01-30T09:00:44;102641.97;;;12.93;71.11
66398;BME280;54877;51.504;3.894;2024-01-30T09:03:10;102641.09;;;12.92;71.37
66398;BME280;54877;51.504;3.894;2024-01-30T09:05:35;102637.44;;;12.96;71.24
66398;BME280;54877;51.504;3.894;2024-01-30T09:08:01;102630.38;;;12.95;71.25
66398;BME280;54877;51.504;3.894;2024-01-30T09:10:26;102634.72;;;12.98;71.19
66398;BME280;54877;51.504;3.894;2024-01-30T09:12:51;102636.75;;;12.90;71.42
66398;BME280;54877;51.504;3.894;2024-01-30T09:15:17;102648.09;;;12.96;71.24
66398;BME280;54877;51.504;3.894;2024-01-30T09:17:43;102644.00;;;12.85;71.15
66398;BME280;54877;51.504;3.894;2024-01-30T09:20:09;102653.00;;;12.81;71.53
66398;BME280;54877;51.504;3.894;2024-01-30T09:22:35;102666.44;;;13.04;71.12
66398;BME280;54877;51.504;3.894;2024-01-30T09:25:00;102660.16;;;13.07;71.02
66398;BME280;54877;51.504;3.894;2024-01-30T09:27:25;102661.84;;;13.11;70.90
66398;BME280;54877;51.504;3.894;2024-01-30T09:29:51;102658.28;;;13.12;70.12
66398;BME280;54877;51.504;3.894;2024-01-30T09:32:16;102668.94;;;13.12;69.06
66398;BME280;54877;51.504;3.894;2024-01-30T09:34:42;102664.72;;;13.03;68.63
66398;BME280;54877;51.504;3.894;2024-01-30T09:37:08;102679.00;;;13.01;67.69
66398;BME280;54877;51.504;3.894;2024-01-30T09:39:33;102677.84;;;12.80;67.40
66398;BME280;54877;51.504;3.894;2024-01-30T09:44:36;102694.91;;;12.71;66.73
66398;BME280;54877;51.504;3.894;2024-01-30T09:47:03;102701.28;;;12.66;66.59
66398;BME280;54877;51.504;3.894;2024-01-30T09:49:33;102711.03;;;12.65;66.53
66398;BME280;54877;51.504;3.894;2024-01-30T09:52:00;102717.00;;;12.73;66.52
66398;BME280;54877;51.504;3.894;2024-01-30T09:54:25;102711.25;;;12.59;66.77
66398;BME280;54877;51.504;3.894;2024-01-30T09:56:51;102711.31;;;12.56;66.90
66398;BME280;54877;51.504;3.894;2024-01-30T09:59:16;102722.53;;;12.66;66.63
66398;BME280;54877;51.504;3.894;2024-01-30T10:01:42;102732.50;;;12.59;66.59
66398;BME280;54877;51.504;3.894;2024-01-30T10:04:08;102727.50;;;12.47;66.66
66398;BME280;54877;51.504;3.894;2024-01-30T10:06:34;102732.91;;;12.44;66.20
66398;BME280;54877;51.504;3.894;2024-01-30T10:08:59;102732.47;;;12.28;66.30
66398;BME280;54877;51.504;3.894;2024-01-30T10:11:24;102738.53;;;12.32;65.95
66398;BME280;54877;51.504;3.894;2024-01-30T10:13:50;102717.94;;;12.40;65.65
66398;BME280;54877;51.504;3.894;2024-01-30T10:16:15;102740.13;;;12.39;65.82
66398;BME280;54877;51.504;3.894;2024-01-30T10:18:41;102742.06;;;12.32;65.92
66398;BME280;54877;51.504;3.894;2024-01-30T10:21:07;102745.59;;;12.33;65.81
66398;BME280;54877;51.504;3.894;2024-01-30T10:23:33;102744.63;;;12.37;65.78
66398;BME280;54877;51.504;3.894;2024-01-30T10:25:59;102742.03;;;12.34;65.65
66398;BME280;54877;51.504;3.894;2024-01-30T10:28:26;102737.22;;;12.48;65.30
66398;BME280;54877;51.504;3.894;2024-01-30T10:31:00;102737.09;;;12.53;64.80
66398;BME280;54877;51.504;3.894;2024-01-30T10:33:28;102744.84;;;12.60;64.69
66398;BME280;54877;51.504;3.894;2024-01-30T10:35:56;102756.88;;;12.73;64.55
66398;BME280;54877;51.504;3.894;2024-01-30T10:38:26;102762.94;;;12.46;65.22
66398;BME280;54877;51.504;3.894;2024-01-30T10:40:56;102757.63;;;12.46;65.39
66398;BME280;54877;51.504;3.894;2024-01-30T10:43:22;102756.00;;;12.41;65.63
66398;BME280;54877;51.504;3.894;2024-01-30T10:45:55;102747.16;;;12.40;65.63
66398;BME280;54877;51.504;3.894;2024-01-30T10:48:28;102759.69;;;12.35;65.73
66398;BME280;54877;51.504;3.894;2024-01-30T10:50:55;102748.50;;;12.24;66.04
66398;BME280;54877;51.504;3.894;2024-01-30T10:53:22;102759.88;;;12.29;66.23
66398;BME280;54877;51.504;3.894;2024-01-30T10:55:49;102762.19;;;12.41;66.14
66398;BME280;54877;51.504;3.894;2024-01-30T10:58:17;102765.88;;;12.37;66.16
66398;BME280;54877;51.504;3.894;2024-01-30T11:00:43;102761.22;;;12.45;65.97
66398;BME280;54877;51.504;3.894;2024-01-30T11:03:09;102772.09;;;12.36;65.86
66398;BME280;54877;51.504;3.894;2024-01-30T11:05:36;102767.97;;;12.24;65.96
66398;BME280;54877;51.504;3.894;2024-01-30T11:08:11;102773.25;;;12.26;65.86
66398;BME280;54877;51.504;3.894;2024-01-30T11:10:48;102782.00;;;12.29;65.54
66398;BME280;54877;51.504;3.894;2024-01-30T11:13:14;102775.59;;;12.03;65.55
66398;BME280;54877;51.504;3.894;2024-01-30T11:15:41;102778.41;;;11.97;65.74
66398;BME280;54877;51.504;3.894;2024-01-30T11:18:06;102778.53;;;11.91;65.45
66398;BME280;54877;51.504;3.894;2024-01-30T11:20:31;102782.56;;;11.71;65.87
66398;BME280;54877;51.504;3.894;2024-01-30T11:22:57;102782.34;;;11.81;65.87
66398;BME280;54877;51.504;3.894;2024-01-30T11:25:24;102798.19;;;11.84;65.99
66398;BME280;54877;51.504;3.894;2024-01-30T11:27:51;102806.28;;;11.79;65.78
66398;BME280;54877;51.504;3.894;2024-01-30T11:30:25;102802.25;;;11.60;66.13
66398;BME280;54877;51.504;3.894;2024-01-30T11:33:10;102804.19;;;11.53;66.42
66398;BME280;54877;51.504;3.894;2024-01-30T11:35:39;102802.44;;;11.52;66.56
66398;BME280;54877;51.504;3.894;2024-01-30T11:38:13;102805.00;;;11.55;66.68
66398;BME280;54877;51.504;3.894;2024-01-30T11:40:39;102804.91;;;11.60;66.86
66398;BME280;54877;51.504;3.894;2024-01-30T11:43:06;102809.28;;;11.62;66.85
66398;BME280;54877;51.504;3.894;2024-01-30T11:45:33;102799.69;;;11.57;66.49
66398;BME280;54877;51.504;3.894;2024-01-30T11:47:59;102817.00;;;11.33;67.43
66398;BME280;54877;51.504;3.894;2024-01-30T11:50:32;102811.75;;;11.32;67.97
66398;BME280;54877;51.504;3.894;2024-01-30T11:53:01;102813.25;;;11.43;67.89
66398;BME280;54877;51.504;3.894;2024-01-30T11:55:29;102813.50;;;11.31;68.32
66398;BME280;54877;51.504;3.894;2024-01-30T11:57:55;102815.13;;;11.38;68.63
66398;BME280;54877;51.504;3.894;2024-01-30T12:00:22;102813.31;;;11.40;68.29
66398;BME280;54877;51.504;3.894;2024-01-30T12:02:51;102814.41;;;11.32;68.56
66398;BME280;54877;51.504;3.894;2024-01-30T12:05:20;102808.97;;;11.36;68.31
66398;BME280;54877;51.504;3.894;2024-01-30T12:07:47;102826.06;;;11.23;68.39
66398;BME280;54877;51.504;3.894;2024-01-30T12:10:13;102812.09;;;11.15;68.64
66398;BME280;54877;51.504;3.894;2024-01-30T12:12:43;102819.44;;;11.01;69.03
66398;BME280;54877;51.504;3.894;2024-01-30T12:15:11;102817.69;;;11.00;68.77
66398;BME280;54877;51.504;3.894;2024-01-30T12:17:36;102817.75;;;10.97;68.91
66398;BME280;54877;51.504;3.894;2024-01-30T12:20:05;102815.75;;;11.08;68.51
66398;BME280;54877;51.504;3.894;2024-01-30T12:22:40;102820.41;;;10.97;68.68
66398;BME280;54877;51.504;3.894;2024-01-30T12:27:44;102830.88;;;11.04;67.74
66398;BME280;54877;51.504;3.894;2024-01-30T12:30:14;102837.03;;;11.05;67.40
66398;BME280;54877;51.504;3.894;2024-01-30T12:32:41;102837.66;;;11.17;66.84
66398;BME280;54877;51.504;3.894;2024-01-30T12:35:16;102837.66;;;11.17;66.60
66398;BME280;54877;51.504;3.894;2024-01-30T12:37:45;102840.03;;;11.31;66.02
66398;BME280;54877;51.504;3.894;2024-01-30T12:40:12;102840.22;;;11.22;65.94
66398;BME280;54877;51.504;3.894;2024-01-30T12:42:40;102832.19;;;11.27;65.92
66398;BME280;54877;51.504;3.894;2024-01-30T12:45:07;102831.31;;;11.26;65.90
66398;BME280;54877;51.504;3.894;2024-01-30T12:47:33;102840.91;;;11.32;65.66
66398;BME280;54877;51.504;3.894;2024-01-30T12:49:58;102845.41;;;11.28;66.00